createdAt,value
2022-11-04T00:00:47.145Z,13.44
2022-11-04T00:03:13.767Z,13.51
2022-11-04T00:05:40.477Z,13.50
2022-11-04T00:08:37.450Z,13.47
2022-11-04T00:11:27.467Z,13.39
2022-11-04T00:13:54.153Z,13.36
2022-11-04T00:16:39.059Z,13.42
2022-11-04T00:19:05.742Z,13.49
2022-11-04T00:21:51.003Z,13.58
2022-11-04T00:24:49.733Z,13.52
2022-11-04T00:27:37.289Z,13.42
2022-11-04T00:30:08.134Z,13.37
2022-11-04T00:32:53.771Z,13.42
2022-11-04T00:35:21.676Z,13.33
2022-11-04T00:37:48.407Z,13.37
2022-11-04T00:40:16.335Z,13.41
2022-11-04T00:42:44.702Z,13.47
2022-11-04T00:45:11.511Z,13.54
2022-11-04T00:47:38.159Z,13.61
2022-11-04T00:50:05.188Z,13.54
2022-11-04T00:52:31.785Z,13.44
2022-11-04T00:54:58.354Z,13.37
2022-11-04T00:57:25.128Z,13.49
2022-11-04T00:59:51.722Z,13.58
2022-11-04T01:02:18.580Z,13.62
2022-11-04T01:04:46.945Z,13.56
2022-11-04T01:07:13.694Z,13.49
2022-11-04T01:09:40.366Z,13.50
2022-11-04T01:12:07.037Z,13.56
2022-11-04T01:14:33.837Z,13.54
2022-11-04T01:17:00.350Z,13.66
2022-11-04T01:19:26.951Z,13.76
2022-11-04T01:21:53.801Z,13.80
2022-11-04T01:24:20.430Z,13.84
2022-11-04T01:26:47.052Z,13.83
2022-11-04T01:29:15.758Z,13.85
2022-11-04T01:31:42.345Z,13.89
2022-11-04T01:34:09.347Z,13.90
2022-11-04T01:36:35.967Z,13.89
2022-11-04T01:39:02.690Z,13.87
2022-11-04T01:41:32.101Z,13.82
2022-11-04T01:44:01.336Z,13.87
2022-11-04T01:46:39.423Z,13.83
2022-11-04T01:49:30.263Z,13.87
2022-11-04T01:52:02.461Z,13.78
2022-11-04T01:54:30.149Z,13.79
2022-11-04T01:56:58.209Z,13.80
2022-11-04T01:59:30.125Z,13.82
2022-11-04T02:01:56.819Z,13.69
2022-11-04T02:04:30.122Z,13.67
2022-11-04T02:06:59.884Z,13.75
2022-11-04T02:09:30.098Z,13.82
2022-11-04T02:12:15.424Z,13.81
2022-11-04T02:14:43.276Z,13.84
2022-11-04T02:17:15.874Z,13.80
2022-11-04T02:20:00.372Z,13.70
2022-11-04T02:22:39.357Z,13.71
2022-11-04T02:25:32.166Z,13.67
2022-11-04T02:28:08.017Z,13.64
2022-11-04T02:31:01.820Z,13.67
2022-11-04T02:33:41.915Z,13.65
2022-11-04T02:36:27.308Z,13.74
2022-11-04T02:39:00.624Z,13.75
2022-11-04T02:41:49.271Z,13.81
2022-11-04T02:44:26.501Z,13.77
2022-11-04T02:47:04.994Z,13.65
2022-11-04T02:49:53.205Z,13.57
2022-11-04T02:52:26.978Z,13.45
2022-11-04T02:55:10.496Z,13.40
2022-11-04T02:57:40.214Z,13.36
2022-11-04T03:00:09.220Z,13.34
2022-11-04T03:02:40.795Z,13.30
2022-11-04T03:05:11.645Z,13.31
2022-11-04T03:07:41.941Z,13.29
2022-11-04T03:10:16.068Z,13.32
2022-11-04T03:12:51.753Z,13.28
2022-11-04T03:15:24.854Z,13.25
2022-11-04T03:18:00.699Z,13.22
2022-11-04T03:20:28.977Z,13.16
2022-11-04T03:22:59.690Z,13.07
2022-11-04T03:25:32.453Z,13.03
2022-11-04T03:28:17.436Z,12.97
2022-11-04T03:30:48.818Z,12.96
2022-11-04T03:33:24.751Z,12.94
2022-11-04T03:35:51.357Z,12.88
2022-11-04T03:38:18.155Z,12.90
2022-11-04T03:40:44.758Z,12.87
2022-11-04T03:43:16.070Z,12.86
2022-11-04T03:45:43.662Z,12.79
2022-11-04T03:48:11.205Z,12.80
2022-11-04T03:50:43.527Z,12.86
2022-11-04T03:53:13.465Z,12.85
2022-11-04T03:55:46.354Z,12.77
2022-11-04T03:58:32.979Z,12.74
2022-11-04T04:01:12.631Z,12.74
2022-11-04T04:03:46.585Z,12.71
2022-11-04T04:06:21.140Z,12.69
2022-11-04T04:08:55.973Z,12.68
2022-11-04T04:11:44.657Z,12.65
2022-11-04T04:14:40.206Z,12.69
2022-11-04T04:17:17.418Z,12.67
2022-11-04T04:19:51.253Z,12.62
2022-11-04T04:22:23.149Z,12.62
2022-11-04T04:25:13.414Z,12.64
2022-11-04T04:27:41.579Z,12.64
2022-11-04T04:30:14.115Z,12.56
2022-11-04T04:32:52.746Z,12.41
2022-11-04T04:35:44.549Z,12.30
2022-11-04T04:38:43.057Z,12.23
2022-11-04T04:41:45.887Z,12.14
2022-11-04T04:44:39.093Z,12.11
2022-11-04T04:47:07.733Z,12.02
2022-11-04T04:49:37.125Z,11.97
2022-11-04T04:52:07.202Z,11.93
2022-11-04T04:54:33.826Z,11.99
2022-11-04T04:57:00.314Z,12.07
2022-11-04T04:59:26.849Z,12.09
2022-11-04T05:01:53.675Z,12.13
2022-11-04T05:04:20.252Z,12.13
2022-11-04T05:06:46.893Z,12.11
2022-11-04T05:09:13.449Z,12.02
2022-11-04T05:11:40.057Z,11.94
2022-11-04T05:14:06.592Z,11.90
2022-11-04T05:16:37.964Z,11.89
2022-11-04T05:19:07.145Z,12.00
2022-11-04T05:21:33.724Z,12.22
2022-11-04T05:24:00.265Z,12.38
2022-11-04T05:26:26.785Z,12.44
2022-11-04T05:28:53.357Z,12.52
2022-11-04T05:31:19.950Z,12.53
2022-11-04T05:33:46.638Z,12.51
2022-11-04T05:36:15.567Z,12.44
2022-11-04T05:38:43.579Z,12.39
2022-11-04T05:41:12.419Z,12.41
2022-11-04T05:43:39.052Z,12.40
2022-11-04T05:46:05.913Z,12.36
2022-11-04T05:48:37.694Z,12.24
2022-11-04T05:51:06.779Z,12.20
2022-11-04T05:53:33.349Z,12.21
2022-11-04T05:55:59.934Z,12.26
2022-11-04T05:58:26.449Z,12.17
2022-11-04T06:00:53.001Z,12.07
2022-11-04T06:03:19.651Z,12.00
2022-11-04T06:05:46.258Z,11.98
2022-11-04T06:08:12.853Z,12.02
2022-11-04T06:10:39.423Z,12.07
2022-11-04T06:13:05.971Z,12.03
2022-11-04T06:15:32.509Z,11.82
2022-11-04T06:17:59.126Z,11.68
2022-11-04T06:20:25.662Z,11.56
2022-11-04T06:22:52.484Z,11.49
2022-11-04T06:25:19.075Z,11.42
2022-11-04T06:27:47.035Z,11.45
2022-11-04T06:30:14.716Z,11.43
2022-11-04T06:32:41.375Z,11.35
2022-11-04T06:35:09.010Z,11.41
2022-11-04T06:37:35.648Z,11.46
2022-11-04T06:40:02.222Z,11.50
2022-11-04T06:42:29.168Z,11.43
2022-11-04T06:44:55.687Z,11.51
2022-11-04T06:47:24.734Z,11.50
2022-11-04T06:49:51.689Z,11.48
2022-11-04T06:52:18.257Z,11.46
2022-11-04T06:54:44.802Z,11.52
2022-11-04T06:57:12.363Z,11.58
2022-11-04T06:59:39.160Z,11.60
2022-11-04T07:02:05.995Z,11.63
2022-11-04T07:04:32.624Z,11.68
2022-11-04T07:06:59.176Z,11.72
2022-11-04T07:09:25.833Z,11.77
2022-11-04T07:11:52.491Z,11.81
2022-11-04T07:14:19.027Z,11.87
2022-11-04T07:16:45.597Z,12.05
2022-11-04T07:19:12.128Z,12.25
2022-11-04T07:21:38.762Z,12.45
2022-11-04T07:24:05.657Z,12.46
2022-11-04T07:26:32.244Z,12.42
2022-11-04T07:29:00.893Z,12.38
2022-11-04T07:31:27.795Z,12.56
2022-11-04T07:33:54.414Z,12.72
2022-11-04T07:36:21.050Z,12.84
2022-11-04T07:38:48.020Z,12.95
2022-11-04T07:41:15.433Z,12.92
2022-11-04T07:43:42.069Z,12.85
2022-11-04T07:46:12.459Z,12.89
2022-11-04T07:48:39.378Z,12.91
2022-11-04T07:51:08.255Z,13.02
2022-11-04T07:53:35.506Z,12.90
2022-11-04T07:56:07.377Z,12.91
2022-11-04T07:58:34.730Z,12.84
2022-11-04T08:01:03.807Z,12.89
2022-11-04T08:03:30.468Z,13.04
2022-11-04T08:06:01.547Z,13.19
2022-11-04T08:08:28.875Z,13.31
2022-11-04T08:11:15.925Z,13.40
2022-11-04T08:13:44.166Z,13.49
2022-11-04T08:16:16.313Z,13.45
2022-11-04T08:18:43.523Z,13.51
2022-11-04T08:21:11.115Z,13.51
2022-11-04T08:23:38.516Z,13.58
2022-11-04T08:26:12.972Z,13.38
2022-11-04T08:28:39.928Z,13.19
2022-11-04T08:31:13.698Z,13.29
2022-11-04T08:33:41.545Z,13.43
2022-11-04T08:36:14.380Z,13.57
2022-11-04T08:38:40.957Z,13.76
2022-11-04T08:41:09.584Z,13.84
2022-11-04T08:43:36.499Z,13.98
2022-11-04T08:46:05.649Z,14.00
2022-11-04T08:48:32.263Z,14.17
2022-11-04T08:50:59.493Z,14.32
2022-11-04T08:53:26.759Z,14.37
2022-11-04T08:55:53.923Z,14.41
2022-11-04T08:58:20.884Z,14.42
2022-11-04T09:00:47.645Z,14.28
2022-11-04T09:03:14.206Z,14.24
2022-11-04T09:05:44.876Z,14.19
2022-11-04T09:08:16.806Z,14.34
2022-11-04T09:10:45.266Z,14.52
2022-11-04T09:13:12.690Z,14.69
2022-11-04T09:15:39.677Z,14.76
2022-11-04T09:18:06.340Z,14.86
2022-11-04T09:20:33.541Z,14.92
2022-11-04T09:23:00.319Z,14.93
2022-11-04T09:25:26.943Z,14.78
2022-11-04T09:27:53.489Z,14.61
2022-11-04T09:30:20.076Z,14.84
2022-11-04T09:32:52.438Z,15.14
2022-11-04T09:35:19.691Z,15.23
2022-11-04T09:37:46.888Z,15.25
2022-11-04T09:40:23.341Z,15.44
2022-11-04T09:43:05.714Z,15.31
2022-11-04T09:45:34.054Z,15.40
2022-11-04T09:48:14.114Z,15.88
2022-11-04T09:50:51.297Z,16.27
2022-11-04T09:53:27.067Z,16.42
2022-11-04T09:56:01.426Z,16.20
2022-11-04T09:58:33.724Z,16.15
2022-11-04T10:01:18.750Z,16.16
2022-11-04T10:04:01.718Z,15.99
2022-11-04T10:07:11.292Z,15.46
2022-11-04T10:09:50.879Z,15.32
2022-11-04T10:12:25.208Z,15.37
2022-11-04T10:15:13.750Z,15.53
2022-11-04T10:18:21.024Z,15.55
2022-11-04T10:20:50.786Z,15.66
2022-11-04T10:23:31.246Z,15.76
2022-11-04T10:26:28.911Z,15.65
2022-11-04T10:29:04.329Z,15.32
2022-11-04T10:31:31.197Z,15.12
2022-11-04T10:34:09.038Z,15.04
2022-11-04T10:36:37.952Z,15.18
2022-11-04T10:39:18.413Z,15.38
2022-11-04T10:41:47.704Z,15.59
2022-11-04T10:44:24.069Z,15.83
2022-11-04T10:47:26.353Z,16.01
2022-11-04T10:50:39.976Z,16.56
2022-11-04T10:53:31.050Z,17.50
2022-11-04T10:56:04.384Z,18.19
2022-11-04T10:58:35.422Z,18.28
2022-11-04T11:01:24.121Z,17.81
2022-11-04T11:03:50.815Z,17.92
2022-11-04T11:06:30.815Z,18.33
2022-11-04T11:09:19.745Z,17.94
2022-11-04T11:11:49.265Z,17.88
2022-11-04T11:14:37.266Z,18.08
2022-11-04T11:17:17.127Z,20.21
2022-11-04T11:20:20.945Z,23.77
2022-11-04T11:22:51.781Z,25.31
2022-11-04T11:25:32.088Z,25.14
2022-11-04T11:28:02.645Z,24.27
2022-11-04T11:30:53.314Z,22.30
2022-11-04T11:33:24.330Z,21.13
2022-11-04T11:35:56.493Z,20.50
2022-11-04T11:38:24.172Z,19.57
2022-11-04T11:41:18.703Z,19.05
2022-11-04T11:43:46.482Z,18.56
2022-11-04T11:46:13.668Z,18.57
2022-11-04T11:48:42.888Z,18.38
2022-11-04T11:51:15.440Z,18.07
2022-11-04T11:54:02.752Z,17.72
2022-11-04T11:56:52.152Z,17.52
2022-11-04T12:02:34.450Z,17.20
2022-11-04T12:12:00.668Z,16.64
2022-11-04T12:14:36.513Z,16.86
2022-11-04T12:17:26.403Z,17.16
2022-11-04T12:20:20.081Z,17.31
2022-11-04T12:22:53.047Z,17.12
2022-11-04T12:26:00.958Z,16.92
2022-11-04T12:29:00.324Z,16.73
2022-11-04T12:31:48.330Z,16.84
2022-11-04T12:34:33.686Z,16.88
2022-11-04T12:37:11.546Z,16.85
2022-11-04T12:40:07.588Z,16.86
2022-11-04T12:42:46.524Z,16.90
2022-11-04T12:45:43.250Z,17.08
2022-11-04T12:48:17.887Z,17.22
2022-11-04T12:51:03.367Z,17.41
2022-11-04T12:53:54.620Z,17.54
2022-11-04T12:56:37.593Z,17.51
2022-11-04T12:59:27.110Z,17.55
2022-11-04T13:02:13.686Z,17.63
2022-11-04T13:04:49.041Z,17.63
2022-11-04T13:07:42.937Z,17.60
2022-11-04T13:10:23.146Z,17.54
2022-11-04T13:12:54.112Z,17.30
2022-11-04T13:15:28.905Z,17.13
2022-11-04T13:18:04.064Z,17.13
2022-11-04T13:20:39.386Z,16.86
2022-11-04T13:23:13.439Z,16.81
2022-11-04T13:25:50.596Z,16.84
2022-11-04T13:28:20.349Z,16.82
2022-11-04T13:31:13.305Z,16.84
2022-11-04T13:33:55.456Z,16.71
2022-11-04T13:36:44.824Z,16.22
2022-11-04T13:39:20.835Z,16.02
2022-11-04T13:42:28.505Z,15.94
2022-11-04T13:44:58.502Z,15.87
2022-11-04T13:47:32.850Z,15.77
2022-11-04T13:49:59.581Z,15.55
2022-11-04T13:52:31.777Z,15.48
2022-11-04T13:55:02.988Z,15.61
2022-11-04T13:57:34.921Z,15.77
2022-11-04T14:00:16.767Z,15.93
2022-11-04T14:02:44.603Z,16.00
2022-11-04T14:05:29.863Z,16.11
2022-11-04T14:08:00.698Z,15.98
2022-11-04T14:10:36.527Z,15.88
2022-11-04T14:13:28.298Z,15.94
2022-11-04T14:16:05.985Z,15.95
2022-11-04T14:18:41.294Z,15.94
2022-11-04T14:21:15.419Z,15.89
2022-11-04T14:23:51.935Z,15.81
2022-11-04T14:26:22.689Z,15.75
2022-11-04T14:29:18.001Z,15.73
2022-11-04T14:31:51.446Z,15.66
2022-11-04T14:34:28.774Z,15.55
2022-11-04T14:37:04.649Z,15.41
2022-11-04T14:39:40.628Z,15.32
2022-11-04T14:42:14.515Z,15.14
2022-11-04T14:44:50.430Z,14.97
2022-11-04T14:47:26.041Z,14.88
2022-11-04T14:50:02.538Z,14.78
2022-11-04T14:52:33.395Z,14.68
2022-11-04T14:55:12.292Z,14.61
2022-11-04T14:57:41.729Z,14.53
2022-11-04T15:00:29.681Z,14.56
2022-11-04T15:04:09.628Z,14.60
2022-11-04T15:06:10.532Z,14.56
2022-11-04T15:08:41.057Z,14.58
2022-11-04T15:11:16.556Z,14.57
2022-11-04T15:13:49.132Z,14.55
2022-11-04T15:16:25.887Z,14.52
2022-11-04T15:18:54.928Z,14.49
2022-11-04T15:21:25.496Z,14.45
2022-11-04T15:23:53.897Z,14.39
2022-11-04T15:26:29.060Z,14.34
2022-11-04T15:29:01.062Z,14.29
2022-11-04T15:31:32.895Z,14.27
2022-11-04T15:34:02.904Z,14.25
2022-11-04T15:36:33.062Z,14.24
2022-11-04T15:39:02.469Z,14.23
2022-11-04T15:41:50.319Z,14.20
2022-11-04T15:44:27.120Z,14.10
2022-11-04T15:46:59.186Z,14.07
2022-11-04T15:49:30.441Z,14.07
2022-11-04T15:52:08.238Z,14.08
2022-11-04T15:54:36.102Z,14.06
2022-11-04T15:57:14.224Z,14.09
2022-11-04T15:59:51.019Z,14.10
2022-11-04T16:02:30.214Z,14.13
2022-11-04T16:05:21.102Z,14.08
2022-11-04T16:07:50.436Z,14.02
2022-11-04T16:10:37.127Z,14.07
2022-11-04T16:13:24.506Z,14.08
2022-11-04T16:16:09.455Z,14.08
2022-11-04T16:18:42.851Z,14.10
2022-11-04T16:21:21.729Z,14.13
2022-11-04T16:23:51.880Z,14.10
2022-11-04T16:26:26.051Z,14.09
2022-11-04T16:28:59.385Z,14.06
2022-11-04T16:31:32.936Z,13.95
2022-11-04T16:34:00.006Z,13.96
2022-11-04T16:36:32.356Z,13.99
2022-11-04T16:39:04.798Z,14.02
2022-11-04T16:41:36.134Z,14.02
2022-11-04T16:44:05.071Z,14.05
2022-11-04T16:46:34.980Z,14.09
2022-11-04T16:49:01.670Z,14.10
2022-11-04T16:51:28.255Z,14.12
2022-11-04T16:53:54.847Z,14.14
2022-11-04T16:56:24.764Z,14.11
2022-11-04T16:58:52.255Z,14.08
2022-11-04T17:01:19.728Z,14.06
2022-11-04T17:03:46.655Z,14.02
2022-11-04T17:06:15.215Z,14.01
2022-11-04T17:08:42.495Z,14.00
2022-11-04T17:11:10.724Z,13.95
2022-11-04T17:13:38.523Z,13.94
2022-11-04T17:16:06.803Z,13.94
2022-11-04T17:18:34.470Z,13.93
2022-11-04T17:21:06.160Z,13.93
2022-11-04T17:23:32.908Z,13.90
2022-11-04T17:25:59.568Z,13.88
2022-11-04T17:28:26.983Z,13.87
2022-11-04T17:30:54.041Z,13.84
2022-11-04T17:33:20.987Z,13.78
2022-11-04T17:35:49.702Z,13.73
2022-11-04T17:38:17.698Z,13.66
2022-11-04T17:41:03.288Z,13.58
2022-11-04T17:43:48.716Z,13.47
2022-11-04T17:46:34.560Z,13.41
2022-11-04T17:49:03.426Z,13.39
2022-11-04T17:51:30.494Z,13.42
2022-11-04T17:53:57.345Z,13.42
2022-11-04T17:56:25.080Z,13.44
2022-11-04T17:58:53.387Z,13.44
2022-11-04T18:01:22.151Z,13.47
2022-11-04T18:03:51.878Z,13.48
2022-11-04T18:06:18.555Z,13.46
2022-11-04T18:08:45.168Z,13.40
2022-11-04T18:11:32.074Z,13.39
2022-11-04T18:13:59.007Z,13.38
2022-11-04T18:16:25.726Z,13.37
2022-11-04T18:18:52.554Z,13.33
2022-11-04T18:21:19.297Z,13.26
2022-11-04T18:23:45.952Z,13.17
2022-11-04T18:26:12.793Z,13.15
2022-11-04T18:28:40.254Z,13.11
2022-11-04T18:31:12.367Z,13.10
2022-11-04T18:33:42.525Z,13.10
2022-11-04T18:36:09.711Z,13.11
2022-11-04T18:38:36.372Z,13.11
2022-11-04T18:41:03.227Z,13.10
2022-11-04T18:43:29.918Z,13.08
2022-11-04T18:45:56.571Z,13.11
2022-11-04T18:48:23.302Z,13.16
2022-11-04T18:50:50.337Z,13.26
2022-11-04T18:53:22.850Z,13.34
2022-11-04T18:55:52.563Z,13.38
2022-11-04T18:58:19.342Z,13.39
2022-11-04T19:00:45.958Z,13.36
2022-11-04T19:03:12.566Z,13.38
2022-11-04T19:05:42.257Z,13.43
2022-11-04T19:08:09.164Z,13.44
2022-11-04T19:10:57.999Z,13.50
2022-11-04T19:13:26.640Z,13.54
2022-11-04T19:15:56.549Z,13.57
2022-11-04T19:18:23.548Z,13.57
2022-11-04T19:20:50.372Z,13.56
2022-11-04T19:23:17.447Z,13.55
2022-11-04T19:25:44.078Z,13.54
2022-11-04T19:28:34.743Z,13.53
2022-11-04T19:31:00.979Z,13.49
2022-11-04T19:33:31.357Z,13.46
2022-11-04T19:36:00.107Z,13.48
2022-11-04T19:38:27.322Z,13.48
2022-11-04T19:40:55.127Z,13.52
2022-11-04T19:43:23.160Z,13.52
2022-11-04T19:45:50.616Z,13.51
2022-11-04T19:48:18.893Z,13.51
2022-11-04T19:50:48.567Z,13.48
2022-11-04T19:53:16.136Z,13.43
2022-11-04T19:55:54.382Z,13.37
2022-11-04T19:58:23.136Z,13.36
2022-11-04T20:00:51.048Z,13.35
2022-11-04T20:03:18.310Z,13.37
2022-11-04T20:05:45.708Z,13.37
2022-11-04T20:08:13.020Z,13.42
2022-11-04T20:10:43.161Z,13.48
2022-11-04T20:13:37.915Z,13.47
2022-11-04T20:16:22.406Z,13.38
2022-11-04T20:18:56.599Z,13.38
2022-11-04T20:21:25.378Z,13.39
2022-11-04T20:23:58.816Z,13.42
2022-11-04T20:26:27.543Z,13.44
2022-11-04T20:28:56.242Z,13.47
2022-11-04T20:31:25.630Z,13.48
2022-11-04T20:33:53.355Z,13.47
2022-11-04T20:36:22.598Z,13.49
2022-11-04T20:38:49.299Z,13.53
2022-11-04T20:41:19.720Z,13.48
2022-11-04T20:43:47.668Z,13.51
2022-11-04T20:46:27.455Z,13.57
2022-11-04T20:48:55.410Z,13.59
2022-11-04T20:51:25.314Z,13.59
2022-11-04T20:53:56.359Z,13.58
2022-11-04T20:56:34.477Z,13.62
2022-11-04T20:59:01.691Z,13.62
2022-11-04T21:01:36.184Z,13.64
2022-11-04T21:04:09.124Z,13.65
2022-11-04T21:06:42.803Z,13.64
2022-11-04T21:09:13.401Z,13.65
2022-11-04T21:11:40.088Z,13.66
2022-11-04T21:14:08.437Z,13.67
2022-11-04T21:16:35.652Z,13.66
2022-11-04T21:19:05.878Z,13.67
2022-11-04T21:21:33.266Z,13.67
2022-11-04T21:24:02.857Z,13.65
2022-11-04T21:26:32.199Z,13.65
2022-11-04T21:29:01.637Z,13.65
2022-11-04T21:31:30.597Z,13.63
2022-11-04T21:33:57.663Z,13.59
2022-11-04T21:36:24.297Z,13.57
2022-11-04T21:38:51.048Z,13.54
2022-11-04T21:41:22.194Z,13.53
2022-11-04T21:43:53.964Z,13.48
2022-11-04T21:46:23.468Z,13.45
2022-11-04T21:48:55.823Z,13.45
2022-11-04T21:51:23.460Z,13.44
2022-11-04T21:53:50.321Z,13.36
2022-11-04T21:56:23.197Z,13.32
2022-11-04T21:58:51.620Z,13.33
2022-11-04T22:01:20.556Z,13.35
2022-11-04T22:03:52.762Z,13.38
2022-11-04T22:06:19.450Z,13.41
2022-11-04T22:08:56.148Z,13.44
2022-11-04T22:11:36.159Z,13.45
2022-11-04T22:14:08.149Z,13.44
2022-11-04T22:16:38.441Z,13.44
2022-11-04T22:19:11.995Z,13.46
2022-11-04T22:21:46.244Z,13.51
2022-11-04T22:24:18.256Z,13.51
2022-11-04T22:26:44.925Z,13.49
2022-11-04T22:29:14.407Z,13.48
2022-11-04T22:31:42.871Z,13.50
2022-11-04T22:34:09.957Z,13.46
2022-11-04T22:36:36.810Z,13.46
2022-11-04T22:39:03.516Z,13.44
2022-11-04T22:41:34.792Z,13.44
2022-11-04T22:44:03.218Z,13.32
2022-11-04T22:46:33.712Z,13.28
2022-11-04T22:49:00.614Z,13.28
2022-11-04T22:51:28.001Z,13.32
2022-11-04T22:53:58.874Z,13.36
2022-11-04T22:56:31.518Z,13.42
2022-11-04T22:59:03.253Z,13.45
2022-11-04T23:01:31.612Z,13.48
2022-11-04T23:03:58.526Z,13.48
2022-11-04T23:06:27.663Z,13.47
2022-11-04T23:08:59.692Z,13.44
2022-11-04T23:11:46.835Z,13.41
2022-11-04T23:14:34.265Z,13.37
2022-11-04T23:17:19.378Z,13.35
2022-11-04T23:19:46.030Z,13.36
2022-11-04T23:22:31.169Z,13.36
2022-11-04T23:25:06.739Z,13.33
2022-11-04T23:27:53.432Z,13.34
2022-11-04T23:30:26.510Z,13.33
2022-11-04T23:32:58.225Z,13.33
2022-11-04T23:35:55.614Z,13.34
2022-11-04T23:38:22.594Z,13.31
2022-11-04T23:41:10.417Z,13.30
2022-11-04T23:43:36.942Z,13.22
2022-11-04T23:46:24.118Z,13.19
2022-11-04T23:49:09.689Z,13.09
2022-11-04T23:51:55.025Z,13.03
2022-11-04T23:54:40.131Z,12.97
2022-11-04T23:57:32.131Z,12.90
